createdAt,value
2017-09-28T00:02:53.406Z,28.70
2017-09-28T00:08:21.565Z,19.90
2017-09-28T00:13:49.685Z,22.20
2017-09-28T00:19:18.618Z,41.40
2017-09-28T00:24:46.757Z,25.03
2017-09-28T00:30:14.897Z,31.73
2017-09-28T00:35:43.144Z,20.80
2017-09-28T00:41:12.064Z,20.80
2017-09-28T00:46:40.766Z,19.13
2017-09-28T00:52:08.902Z,22.40
2017-09-28T00:57:37.183Z,18.10
2017-09-28T01:03:05.332Z,18.60
2017-09-28T01:08:33.622Z,22.80
2017-09-28T01:14:01.749Z,18.00
2017-09-28T01:19:29.905Z,24.30
2017-09-28T01:24:58.052Z,19.50
2017-09-28T01:30:26.186Z,18.80
2017-09-28T01:35:55.281Z,20.67
2017-09-28T01:41:23.429Z,19.70
2017-09-28T01:46:51.560Z,20.23
2017-09-28T01:52:19.693Z,19.87
2017-09-28T01:57:47.861Z,21.80
2017-09-28T02:03:16.757Z,19.47
2017-09-28T02:08:44.911Z,19.13
2017-09-28T02:14:13.821Z,20.83
2017-09-28T02:19:42.854Z,18.50
2017-09-28T02:25:11.765Z,19.17
2017-09-28T02:30:39.983Z,16.37
2017-09-28T02:36:08.889Z,19.10
2017-09-28T02:41:37.022Z,18.50
2017-09-28T02:47:05.925Z,28.63
2017-09-28T02:52:34.055Z,29.10
2017-09-28T02:58:02.964Z,19.23
2017-09-28T03:03:31.108Z,18.43
2017-09-28T03:08:59.237Z,18.57
2017-09-28T03:14:28.144Z,18.30
2017-09-28T03:19:56.265Z,19.97
2017-09-28T03:25:24.398Z,15.73
2017-09-28T03:30:52.545Z,17.10
2017-09-28T03:36:20.670Z,17.53
2017-09-28T03:41:48.808Z,17.70
2017-09-28T03:47:16.958Z,16.90
2017-09-28T03:52:45.101Z,18.60
2017-09-28T03:58:13.361Z,16.47
2017-09-28T04:03:41.490Z,16.30
2017-09-28T04:09:09.633Z,19.50
2017-09-28T04:14:37.762Z,16.37
2017-09-28T04:20:05.889Z,14.53
2017-09-28T04:25:34.030Z,19.43
2017-09-28T04:31:02.149Z,14.63
2017-09-28T04:36:31.247Z,13.70
2017-09-28T04:41:59.392Z,17.40
2017-09-28T04:47:28.108Z,14.23
2017-09-28T04:52:56.252Z,17.73
2017-09-28T04:58:24.392Z,19.33
2017-09-28T05:03:53.285Z,15.20
2017-09-28T05:09:21.421Z,14.03
2017-09-28T05:14:49.557Z,19.93
2017-09-28T05:20:17.796Z,14.60
2017-09-28T05:25:46.679Z,14.30
2017-09-28T05:31:15.572Z,15.53
2017-09-28T05:36:43.712Z,15.53
2017-09-28T05:42:12.588Z,12.73
2017-09-28T05:47:40.708Z,22.03
2017-09-28T05:53:08.842Z,16.90
2017-09-28T05:58:36.971Z,12.60
2017-09-28T06:04:05.098Z,28.03
2017-09-28T06:09:33.238Z,12.53
2017-09-28T06:15:01.369Z,13.23
2017-09-28T06:20:29.511Z,18.23
2017-09-28T06:25:57.650Z,15.53
2017-09-28T06:31:25.796Z,10.17
2017-09-28T06:36:53.952Z,10.97
2017-09-28T06:42:22.876Z,12.83
2017-09-28T06:47:51.019Z,11.03
2017-09-28T06:53:19.168Z,13.00
2017-09-28T06:58:47.326Z,10.57
2017-09-28T07:04:15.479Z,8.63
2017-09-28T07:09:43.620Z,10.90
2017-09-28T07:15:12.508Z,9.07
2017-09-28T07:20:40.657Z,8.40
2017-09-28T07:26:09.572Z,27.37
2017-09-28T07:31:37.718Z,10.00
2017-09-28T07:37:05.876Z,27.53
2017-09-28T07:42:34.014Z,7.00
2017-09-28T07:48:02.142Z,8.50
2017-09-28T07:53:30.282Z,8.50
2017-09-28T07:58:58.411Z,6.93
2017-09-28T08:04:26.553Z,10.90
2017-09-28T08:09:54.686Z,7.20
2017-09-28T08:15:23.615Z,9.90
2017-09-28T08:20:51.777Z,8.33
2017-09-28T08:26:19.963Z,13.40
2017-09-28T08:31:48.124Z,6.83
2017-09-28T08:37:16.271Z,6.40
2017-09-28T08:42:44.398Z,5.50
2017-09-28T08:48:12.538Z,6.20
2017-09-28T08:53:40.682Z,6.63
2017-09-28T08:59:08.830Z,5.97
2017-09-28T09:04:37.734Z,8.97
2017-09-28T09:10:05.869Z,4.43
2017-09-28T09:15:34.021Z,6.07
2017-09-28T09:21:02.930Z,4.90
2017-09-28T09:26:31.064Z,3.90
2017-09-28T09:31:59.966Z,6.03
2017-09-28T09:37:28.105Z,5.97
2017-09-28T09:42:56.254Z,4.23
2017-09-28T09:48:24.395Z,8.03
2017-09-28T09:53:53.293Z,6.27
2017-09-28T09:59:21.466Z,5.93
2017-09-28T10:04:49.618Z,10.23
2017-09-28T10:10:22.472Z,8.00
2017-09-28T10:15:54.269Z,5.67
2017-09-28T10:21:22.436Z,4.80
2017-09-28T10:26:50.575Z,5.10
2017-09-28T10:32:18.754Z,6.57
2017-09-28T10:37:46.909Z,7.87
2017-09-28T10:43:15.051Z,4.27
2017-09-28T10:48:43.194Z,6.30
2017-09-28T10:54:11.335Z,9.33
2017-09-28T10:59:39.481Z,5.10
2017-09-28T11:05:07.628Z,7.23
2017-09-28T11:10:35.753Z,7.70
2017-09-28T11:16:03.909Z,7.40
2017-09-28T11:21:32.046Z,4.57
2017-09-28T11:27:00.192Z,8.70
2017-09-28T11:32:28.320Z,8.73
2017-09-28T11:37:56.452Z,7.73
2017-09-28T11:43:24.585Z,9.30
2017-09-28T11:48:52.760Z,15.07
2017-09-28T11:54:20.918Z,7.90
2017-09-28T11:59:49.071Z,8.63
2017-09-28T12:05:17.231Z,15.30
2017-09-28T12:10:45.392Z,12.40
2017-09-28T12:16:13.522Z,8.73
2017-09-28T12:21:41.670Z,9.20
2017-09-28T12:27:09.806Z,11.97
2017-09-28T12:32:37.945Z,8.83
2017-09-28T12:38:06.084Z,8.80
2017-09-28T12:43:35.000Z,8.43
2017-09-28T12:49:03.122Z,9.87
2017-09-28T12:54:32.018Z,8.83
2017-09-28T13:00:00.167Z,6.40
2017-09-28T13:05:28.297Z,12.77
2017-09-28T13:10:56.426Z,8.30
2017-09-28T13:16:24.575Z,8.63
2017-09-28T13:21:52.778Z,7.90
2017-09-28T13:27:20.933Z,18.23
2017-09-28T13:32:49.078Z,14.93
2017-09-28T13:38:17.230Z,13.30
2017-09-28T13:43:45.392Z,15.37
2017-09-28T13:49:13.526Z,6.80
2017-09-28T13:54:41.708Z,7.77
2017-09-28T14:00:09.813Z,9.70
2017-09-28T14:05:38.006Z,17.80
2017-09-28T14:11:07.209Z,11.00
2017-09-28T14:16:35.362Z,10.43
2017-09-28T14:22:03.499Z,10.47
2017-09-28T14:27:31.635Z,16.03
2017-09-28T14:33:06.707Z,14.10
2017-09-28T14:38:34.853Z,12.47
2017-09-28T14:44:02.995Z,10.63
2017-09-28T14:49:36.695Z,8.60
2017-09-28T14:55:04.826Z,7.37
2017-09-28T15:00:32.976Z,7.57
2017-09-28T15:06:01.121Z,14.50
2017-09-28T15:11:29.267Z,9.83
2017-09-28T15:16:57.401Z,8.97
2017-09-28T15:22:25.542Z,8.93
2017-09-28T15:27:53.691Z,10.63
2017-09-28T15:33:21.843Z,8.60
2017-09-28T15:38:50.021Z,10.03
2017-09-28T15:44:18.216Z,10.43
2017-09-28T15:49:46.366Z,14.93
2017-09-28T15:55:15.275Z,12.17
2017-09-28T16:00:43.426Z,10.30
2017-09-28T16:06:11.592Z,10.20
2017-09-28T16:11:39.740Z,10.40
2017-09-28T16:17:07.865Z,11.90
2017-09-28T16:22:36.778Z,9.90
2017-09-28T16:28:04.926Z,10.93
2017-09-28T16:33:33.087Z,13.97
2017-09-28T16:39:01.238Z,17.03
2017-09-28T16:44:29.374Z,10.93
2017-09-28T16:49:58.314Z,6.17
2017-09-28T16:55:26.495Z,7.00
2017-09-28T17:00:55.483Z,6.23
2017-09-28T17:06:23.700Z,14.07
2017-09-28T17:11:51.914Z,13.73
2017-09-28T17:17:20.055Z,7.63
2017-09-28T17:22:48.988Z,10.10
2017-09-28T17:28:17.175Z,17.17
2017-09-28T17:33:45.316Z,10.97
2017-09-28T17:39:13.454Z,9.90
2017-09-28T17:44:41.616Z,12.33
2017-09-28T17:50:09.761Z,11.20
2017-09-28T17:55:37.917Z,10.83
2017-09-28T18:01:07.092Z,9.73
2017-09-28T18:06:35.338Z,9.30
2017-09-28T18:12:03.490Z,20.43
2017-09-28T18:17:31.639Z,16.27
2017-09-28T18:22:59.820Z,15.50
2017-09-28T18:28:29.128Z,14.07
2017-09-28T18:33:57.275Z,21.07
2017-09-28T18:39:25.427Z,16.97
2017-09-28T18:44:53.587Z,21.93
2017-09-28T18:50:21.769Z,17.10
2017-09-28T18:55:50.036Z,17.03
2017-09-28T19:01:18.286Z,18.70
2017-09-28T19:06:47.370Z,25.83
2017-09-28T19:12:15.586Z,20.77
2017-09-28T19:17:44.558Z,22.80
2017-09-28T19:23:12.722Z,20.50
2017-09-28T19:28:40.873Z,25.43
2017-09-28T19:34:09.005Z,21.20
2017-09-28T19:39:37.278Z,15.90
2017-09-28T19:45:05.488Z,14.87
2017-09-28T19:50:33.705Z,19.73
2017-09-28T19:56:04.615Z,18.93
2017-09-28T20:01:32.755Z,17.30
2017-09-28T20:07:01.810Z,19.57
2017-09-28T20:12:32.773Z,18.50
2017-09-28T20:18:01.071Z,23.73
2017-09-28T20:23:29.220Z,22.00
2017-09-28T20:28:57.368Z,18.27
2017-09-28T20:34:25.509Z,23.27
2017-09-28T20:39:53.663Z,24.27
2017-09-28T20:45:21.830Z,21.60
2017-09-28T20:50:50.044Z,20.53
2017-09-28T20:56:18.221Z,25.43
2017-09-28T21:01:46.376Z,19.63
2017-09-28T21:07:14.531Z,29.33
2017-09-28T21:12:42.703Z,20.77
2017-09-28T21:18:10.850Z,25.13
2017-09-28T21:23:40.027Z,19.63
2017-09-28T21:29:08.185Z,25.83
2017-09-28T21:34:36.740Z,19.67
2017-09-28T21:40:04.889Z,17.80
2017-09-28T21:45:33.056Z,25.17
2017-09-28T21:51:01.378Z,20.70
2017-09-28T21:56:29.576Z,26.93
2017-09-28T22:01:57.729Z,26.90
2017-09-28T22:07:25.854Z,18.70
2017-09-28T22:12:54.026Z,18.67
2017-09-28T22:18:22.184Z,19.17
2017-09-28T22:23:52.242Z,22.90
2017-09-28T22:29:21.175Z,17.00
2017-09-28T22:34:50.262Z,14.20
2017-09-28T22:40:19.430Z,17.20
2017-09-28T22:45:47.566Z,18.67
2017-09-28T22:51:15.730Z,12.27
2017-09-28T22:56:47.309Z,19.47
2017-09-28T23:02:15.469Z,14.50
2017-09-28T23:07:43.589Z,13.73
2017-09-28T23:13:11.737Z,17.00
2017-09-28T23:18:39.876Z,18.13
2017-09-28T23:24:08.797Z,12.57
2017-09-28T23:29:36.933Z,13.00
2017-09-28T23:35:05.095Z,13.83
2017-09-28T23:40:33.229Z,14.27
2017-09-28T23:46:02.140Z,13.37
2017-09-28T23:51:30.270Z,13.03
2017-09-28T23:56:58.465Z,12.30
